createdAt,value
2022-07-30T00:01:36.260Z,11.63
2022-07-30T00:04:02.915Z,14.30
2022-07-30T00:06:29.366Z,14.27
2022-07-30T00:08:55.758Z,12.93
2022-07-30T00:11:25.906Z,13.55
2022-07-30T00:13:54.382Z,14.13
2022-07-30T00:16:20.831Z,11.88
2022-07-30T00:18:47.389Z,13.15
2022-07-30T00:21:20.235Z,17.60
2022-07-30T00:24:02.247Z,17.05
2022-07-30T00:26:28.954Z,15.82
2022-07-30T00:28:55.329Z,12.75
2022-07-30T00:31:21.729Z,11.52
2022-07-30T00:33:48.105Z,7.65
2022-07-30T00:36:14.453Z,18.83
2022-07-30T00:38:40.808Z,12.57
2022-07-30T00:41:07.164Z,18.50
2022-07-30T00:43:33.545Z,11.00
2022-07-30T00:45:59.980Z,14.80
2022-07-30T00:48:26.336Z,14.93
2022-07-30T00:50:52.697Z,18.80
2022-07-30T00:53:19.021Z,14.32
2022-07-30T00:55:45.390Z,13.20
2022-07-30T00:58:11.779Z,15.50
2022-07-30T01:00:38.134Z,18.00
2022-07-30T01:03:04.915Z,17.30
2022-07-30T01:05:31.273Z,17.67
2022-07-30T01:07:57.594Z,17.63
2022-07-30T01:10:23.973Z,16.90
2022-07-30T01:12:52.647Z,13.18
2022-07-30T01:15:19.553Z,11.15
2022-07-30T01:17:52.760Z,17.17
2022-07-30T01:20:24.448Z,12.48
2022-07-30T01:22:51.558Z,16.98
2022-07-30T01:25:27.832Z,13.52
2022-07-30T01:27:59.452Z,17.75
2022-07-30T01:30:27.759Z,10.97
2022-07-30T01:32:56.089Z,12.70
2022-07-30T01:35:23.595Z,18.10
2022-07-30T01:37:51.370Z,22.35
2022-07-30T01:40:19.149Z,13.77
2022-07-30T01:42:46.727Z,13.30
2022-07-30T01:45:13.822Z,10.80
2022-07-30T01:47:42.433Z,14.52
2022-07-30T01:50:13.648Z,21.98
2022-07-30T01:52:41.523Z,20.67
2022-07-30T01:55:17.214Z,13.05
2022-07-30T01:57:45.731Z,15.32
2022-07-30T02:00:12.546Z,15.07
2022-07-30T02:02:45.363Z,13.65
2022-07-30T02:05:12.961Z,16.52
2022-07-30T02:07:45.672Z,17.40
2022-07-30T02:10:23.105Z,14.80
2022-07-30T02:12:55.175Z,11.10
2022-07-30T02:15:23.560Z,12.25
2022-07-30T02:17:57.911Z,17.48
2022-07-30T02:20:28.337Z,22.38
2022-07-30T02:22:58.395Z,21.15
2022-07-30T02:25:25.923Z,15.77
2022-07-30T02:27:54.524Z,14.05
2022-07-30T02:30:26.793Z,18.75
2022-07-30T02:32:55.514Z,18.27
2022-07-30T02:35:23.671Z,17.50
2022-07-30T02:37:52.551Z,15.73
2022-07-30T02:40:20.011Z,19.60
2022-07-30T02:42:47.499Z,15.95
2022-07-30T02:45:18.019Z,23.73
2022-07-30T02:47:50.082Z,16.52
2022-07-30T02:50:17.836Z,19.75
2022-07-30T02:52:45.200Z,17.67
2022-07-30T02:55:12.484Z,13.30
2022-07-30T02:57:43.425Z,13.48
2022-07-30T03:00:11.792Z,20.48
2022-07-30T03:02:38.895Z,11.88
2022-07-30T03:05:06.514Z,16.88
2022-07-30T03:07:34.628Z,13.43
2022-07-30T03:10:01.339Z,20.70
2022-07-30T03:12:32.802Z,14.18
2022-07-30T03:14:59.371Z,13.00
2022-07-30T03:17:26.156Z,14.45
2022-07-30T03:19:53.481Z,16.15
2022-07-30T03:22:22.290Z,14.05
2022-07-30T03:24:49.207Z,17.40
2022-07-30T03:27:16.219Z,16.17
2022-07-30T03:29:43.916Z,14.25
2022-07-30T03:32:10.515Z,14.40
2022-07-30T03:34:41.407Z,17.83
2022-07-30T03:37:08.565Z,18.15
2022-07-30T03:39:36.364Z,18.75
2022-07-30T03:42:06.157Z,13.52
2022-07-30T03:44:33.339Z,17.75
2022-07-30T03:47:02.165Z,16.15
2022-07-30T03:49:30.408Z,10.43
2022-07-30T03:51:57.182Z,13.80
2022-07-30T03:54:24.974Z,24.80
2022-07-30T03:57:09.855Z,21.95
2022-07-30T03:59:43.013Z,14.55
2022-07-30T04:02:09.958Z,14.48
2022-07-30T04:04:54.721Z,18.77
2022-07-30T04:07:22.413Z,18.77
2022-07-30T04:09:49.145Z,19.38
2022-07-30T04:12:35.546Z,11.38
2022-07-30T04:15:03.075Z,15.63
2022-07-30T04:17:51.623Z,15.75
2022-07-30T04:20:21.928Z,16.20
2022-07-30T04:22:49.420Z,12.98
2022-07-30T04:25:23.360Z,16.08
2022-07-30T04:28:03.126Z,13.25
2022-07-30T04:30:30.910Z,15.02
2022-07-30T04:32:57.275Z,13.10
2022-07-30T04:35:50.971Z,19.17
2022-07-30T04:38:38.843Z,16.67
2022-07-30T04:41:05.313Z,16.30
2022-07-30T04:43:57.675Z,16.65
2022-07-30T04:46:25.274Z,18.67
2022-07-30T04:48:53.071Z,13.48
2022-07-30T04:51:24.066Z,15.50
2022-07-30T04:53:50.786Z,28.98
2022-07-30T04:56:20.570Z,18.75
2022-07-30T04:58:47.477Z,18.75
2022-07-30T05:01:18.656Z,17.90
2022-07-30T05:03:47.656Z,18.45
2022-07-30T05:06:14.304Z,16.70
2022-07-30T05:08:41.677Z,19.98
2022-07-30T05:11:11.844Z,18.30
2022-07-30T05:13:40.462Z,20.83
2022-07-30T05:16:09.040Z,15.93
2022-07-30T05:18:35.706Z,20.85
2022-07-30T05:21:02.023Z,17.23
2022-07-30T05:23:31.591Z,11.02
2022-07-30T05:26:13.367Z,14.37
2022-07-30T05:28:45.015Z,9.68
2022-07-30T05:31:17.889Z,13.10
2022-07-30T05:33:52.625Z,10.80
2022-07-30T05:38:50.939Z,17.60
2022-07-30T05:41:33.040Z,16.05
2022-07-30T05:44:23.587Z,11.57
2022-07-30T05:46:53.389Z,12.70
2022-07-30T05:49:20.334Z,14.48
2022-07-30T05:51:46.794Z,17.92
2022-07-30T05:54:13.371Z,12.25
2022-07-30T05:57:00.993Z,13.23
2022-07-30T05:59:37.979Z,12.00
2022-07-30T06:02:04.444Z,10.77
2022-07-30T06:04:49.578Z,11.65
2022-07-30T06:07:16.714Z,14.95
2022-07-30T06:09:43.215Z,15.45
2022-07-30T06:12:10.266Z,7.78
2022-07-30T06:14:36.940Z,11.27
2022-07-30T06:17:05.625Z,8.48
2022-07-30T06:19:53.243Z,10.93
2022-07-30T06:22:25.829Z,8.05
2022-07-30T06:24:53.285Z,7.30
2022-07-30T06:27:23.819Z,8.18
2022-07-30T06:29:50.527Z,6.68
2022-07-30T06:32:17.393Z,10.60
2022-07-30T06:34:43.744Z,9.93
2022-07-30T06:37:12.046Z,10.70
2022-07-30T06:39:56.180Z,7.95
2022-07-30T06:42:43.224Z,8.45
2022-07-30T06:45:29.703Z,9.82
2022-07-30T06:48:14.688Z,8.88
2022-07-30T06:50:41.806Z,16.00
2022-07-30T06:53:08.455Z,7.72
2022-07-30T06:55:58.295Z,8.18
2022-07-30T06:58:30.335Z,5.18
2022-07-30T07:01:20.885Z,7.88
2022-07-30T07:03:47.268Z,6.00
2022-07-30T07:06:14.706Z,6.20
2022-07-30T07:08:42.536Z,9.32
2022-07-30T07:11:12.073Z,4.72
2022-07-30T07:13:47.291Z,6.85
2022-07-30T07:16:25.196Z,3.80
2022-07-30T07:18:53.572Z,5.18
2022-07-30T07:21:20.728Z,10.07
2022-07-30T07:23:48.764Z,7.40
2022-07-30T07:26:33.843Z,5.78
2022-07-30T07:29:05.001Z,6.20
2022-07-30T07:32:07.414Z,5.15
2022-07-30T07:34:19.639Z,5.15
2022-07-30T07:36:46.239Z,5.32
2022-07-30T07:39:13.029Z,3.97
2022-07-30T07:41:48.478Z,7.88
2022-07-30T07:44:17.780Z,8.13
2022-07-30T07:46:44.189Z,11.02
2022-07-30T07:49:10.752Z,4.78
2022-07-30T07:51:47.509Z,8.18
2022-07-30T07:54:22.615Z,3.13
2022-07-30T07:56:51.566Z,3.63
2022-07-30T07:59:19.571Z,4.90
2022-07-30T08:01:46.531Z,4.95
2022-07-30T08:04:32.244Z,5.13
2022-07-30T08:07:10.353Z,5.13
2022-07-30T08:09:56.671Z,6.72
2022-07-30T08:12:29.882Z,4.93
2022-07-30T08:15:21.753Z,2.28
2022-07-30T08:18:04.946Z,5.95
2022-07-30T08:20:51.613Z,4.97
2022-07-30T08:23:23.415Z,4.43
2022-07-30T08:25:50.055Z,8.23
2022-07-30T08:28:35.337Z,3.55
2022-07-30T08:31:03.791Z,9.50
2022-07-30T08:33:30.306Z,3.17
2022-07-30T08:36:03.985Z,5.43
2022-07-30T08:38:32.205Z,5.20
2022-07-30T08:40:59.071Z,2.45
2022-07-30T08:43:28.761Z,4.95
2022-07-30T08:45:56.777Z,6.72
2022-07-30T08:48:43.065Z,4.60
2022-07-30T08:51:12.326Z,4.67
2022-07-30T08:54:16.535Z,4.10
2022-07-30T08:56:43.075Z,4.72
2022-07-30T08:59:09.914Z,2.70
2022-07-30T09:01:38.561Z,3.10
2022-07-30T09:06:32.515Z,4.18
2022-07-30T09:08:59.086Z,5.15
2022-07-30T09:11:25.500Z,4.78
2022-07-30T09:13:52.027Z,8.77
2022-07-30T09:16:20.227Z,5.60
2022-07-30T09:18:47.526Z,5.60
2022-07-30T09:21:18.158Z,1.58
2022-07-30T09:23:57.023Z,4.45
2022-07-30T09:26:52.840Z,6.00
2022-07-30T09:29:37.570Z,5.07
2022-07-30T09:32:22.354Z,2.47
2022-07-30T09:35:13.995Z,5.20
2022-07-30T09:38:05.896Z,4.40
2022-07-30T09:41:22.822Z,2.53
2022-07-30T09:44:08.001Z,3.15
2022-07-30T09:46:53.389Z,4.45
2022-07-30T09:49:34.071Z,7.15
2022-07-30T09:52:01.586Z,5.28
2022-07-30T09:54:51.779Z,7.55
2022-07-30T09:57:25.457Z,3.95
2022-07-30T10:00:01.219Z,2.90
2022-07-30T10:02:31.938Z,4.25
2022-07-30T10:05:22.300Z,4.82
2022-07-30T10:07:57.266Z,3.45
2022-07-30T10:10:28.147Z,3.80
2022-07-30T10:12:59.277Z,5.05
2022-07-30T10:15:29.767Z,10.07
2022-07-30T10:17:58.191Z,3.95
2022-07-30T10:20:45.563Z,5.75
2022-07-30T10:23:32.995Z,5.97
2022-07-30T10:26:18.300Z,9.32
2022-07-30T10:29:03.941Z,2.67
2022-07-30T10:31:48.942Z,4.47
2022-07-30T10:34:17.595Z,4.57
2022-07-30T10:36:55.946Z,4.55
2022-07-30T10:39:29.411Z,4.30
2022-07-30T10:42:21.064Z,3.33
2022-07-30T10:44:55.643Z,2.97
2022-07-30T10:47:29.140Z,3.40
2022-07-30T10:50:10.505Z,5.40
2022-07-30T10:52:44.420Z,2.83
2022-07-30T10:55:15.775Z,4.80
2022-07-30T10:57:57.055Z,1.98
2022-07-30T11:00:27.979Z,3.30
2022-07-30T11:03:14.877Z,2.78
2022-07-30T11:05:45.483Z,4.13
2022-07-30T11:08:36.145Z,4.40
2022-07-30T11:11:19.890Z,3.78
2022-07-30T11:13:54.594Z,3.65
2022-07-30T11:16:42.541Z,3.30
2022-07-30T11:19:56.839Z,3.45
2022-07-30T11:22:22.206Z,2.10
2022-07-30T11:24:49.535Z,3.22
2022-07-30T11:27:36.121Z,5.25
2022-07-30T11:30:03.804Z,3.30
2022-07-30T11:32:31.962Z,5.03
2022-07-30T11:35:18.341Z,3.40
2022-07-30T11:38:03.302Z,3.80
2022-07-30T11:40:31.954Z,3.80
2022-07-30T11:43:16.637Z,2.60
2022-07-30T11:45:43.301Z,4.90
2022-07-30T11:48:11.497Z,2.65
2022-07-30T11:50:37.931Z,4.57
2022-07-30T11:53:06.056Z,2.35
2022-07-30T11:55:34.611Z,2.35
2022-07-30T11:58:02.526Z,3.20
2022-07-30T12:00:40.434Z,3.33
2022-07-30T12:03:08.042Z,4.43
2022-07-30T12:05:38.110Z,3.40
2022-07-30T12:08:05.328Z,3.80
2022-07-30T12:10:31.988Z,6.30
2022-07-30T12:13:09.065Z,3.47
2022-07-30T12:15:37.194Z,2.75
2022-07-30T12:18:25.406Z,6.75
2022-07-30T12:20:59.317Z,4.82
2022-07-30T12:23:26.386Z,5.32
2022-07-30T12:25:52.942Z,3.45
2022-07-30T12:28:20.191Z,4.25
2022-07-30T12:30:49.095Z,9.55
2022-07-30T12:33:15.489Z,4.68
2022-07-30T12:35:44.973Z,1.63
2022-07-30T12:38:11.955Z,4.90
2022-07-30T12:40:54.579Z,5.93
2022-07-30T12:43:39.519Z,1.30
2022-07-30T12:46:05.885Z,2.63
2022-07-30T12:48:32.483Z,5.95
2022-07-30T12:51:08.370Z,4.45
2022-07-30T12:53:35.426Z,2.00
2022-07-30T12:56:12.106Z,4.55
2022-07-30T12:58:38.495Z,4.93
2022-07-30T13:01:04.942Z,4.18
2022-07-30T13:03:39.225Z,1.63
2022-07-30T13:06:18.976Z,2.53
2022-07-30T13:08:47.113Z,3.60
2022-07-30T13:11:13.539Z,5.57
2022-07-30T13:13:39.927Z,4.68
2022-07-30T13:16:06.694Z,3.38
2022-07-30T13:18:34.039Z,4.13
2022-07-30T13:21:00.969Z,1.60
2022-07-30T13:23:27.657Z,3.22
2022-07-30T13:25:53.993Z,2.10
2022-07-30T13:28:20.325Z,5.32
2022-07-30T13:30:47.182Z,5.32
2022-07-30T13:33:14.304Z,2.08
2022-07-30T13:35:40.770Z,4.25
2022-07-30T13:38:07.162Z,5.45
2022-07-30T13:40:33.670Z,7.43
2022-07-30T13:43:00.462Z,5.30
2022-07-30T13:45:29.509Z,3.25
2022-07-30T13:47:56.186Z,3.72
2022-07-30T13:50:22.545Z,3.25
2022-07-30T13:52:49.269Z,3.55
2022-07-30T13:55:15.675Z,5.45
2022-07-30T13:57:45.112Z,4.82
2022-07-30T14:00:12.570Z,2.80
2022-07-30T14:02:39.305Z,6.50
2022-07-30T14:05:07.131Z,4.20
2022-07-30T14:07:34.182Z,1.67
2022-07-30T14:10:00.793Z,3.83
2022-07-30T14:12:29.247Z,8.65
2022-07-30T14:14:55.582Z,4.72
2022-07-30T14:17:21.914Z,1.75
2022-07-30T14:19:50.139Z,4.40
2022-07-30T14:22:16.527Z,4.90
2022-07-30T14:24:42.934Z,3.10
2022-07-30T14:27:09.387Z,3.38
2022-07-30T14:29:35.783Z,7.85
2022-07-30T14:32:02.147Z,5.95
2022-07-30T14:34:28.530Z,2.33
2022-07-30T14:36:54.916Z,6.43
2022-07-30T14:39:21.459Z,3.00
2022-07-30T14:41:47.843Z,4.57
2022-07-30T14:44:18.837Z,2.67
2022-07-30T14:46:51.589Z,2.70
2022-07-30T14:49:19.722Z,7.60
2022-07-30T14:51:46.679Z,2.28
2022-07-30T14:54:13.757Z,7.63
2022-07-30T14:56:40.151Z,3.78
2022-07-30T14:59:07.305Z,4.55
2022-07-30T15:01:33.766Z,8.77
2022-07-30T15:04:00.206Z,5.38
2022-07-30T15:06:26.786Z,3.28
2022-07-30T15:08:53.475Z,9.80
2022-07-30T15:11:21.269Z,4.10
2022-07-30T15:13:50.074Z,4.13
2022-07-30T15:16:17.314Z,6.85
2022-07-30T15:18:43.646Z,3.70
2022-07-30T15:21:10.003Z,6.22
2022-07-30T15:23:36.403Z,2.33
2022-07-30T15:26:02.762Z,5.95
2022-07-30T15:28:29.105Z,1.80
2022-07-30T15:30:55.825Z,3.97
2022-07-30T15:33:22.505Z,10.30
2022-07-30T15:35:48.869Z,10.73
2022-07-30T15:38:15.320Z,3.95
2022-07-30T15:40:43.698Z,3.30
2022-07-30T15:43:10.428Z,4.35
2022-07-30T15:45:51.006Z,6.35
2022-07-30T15:48:26.623Z,7.18
2022-07-30T15:51:00.677Z,3.15
2022-07-30T15:53:27.087Z,5.88
2022-07-30T15:55:53.419Z,4.65
2022-07-30T15:58:19.731Z,3.20
2022-07-30T16:00:46.190Z,10.27
2022-07-30T16:03:12.656Z,5.20
2022-07-30T16:05:51.744Z,4.03
2022-07-30T16:08:19.739Z,3.53
2022-07-30T16:10:46.059Z,6.00
2022-07-30T16:13:12.386Z,3.33
2022-07-30T16:15:38.749Z,5.15
2022-07-30T16:18:05.634Z,2.22
2022-07-30T16:20:32.665Z,6.07
2022-07-30T16:22:59.112Z,4.78
2022-07-30T16:25:25.635Z,3.53
2022-07-30T16:27:52.182Z,3.90
2022-07-30T16:30:18.554Z,9.05
2022-07-30T16:32:44.867Z,4.32
2022-07-30T16:35:13.313Z,2.72
2022-07-30T16:37:39.947Z,4.70
2022-07-30T16:40:06.514Z,3.92
2022-07-30T16:42:32.855Z,4.45
2022-07-30T16:44:59.185Z,7.13
2022-07-30T16:47:25.524Z,3.08
2022-07-30T16:49:51.863Z,5.70
2022-07-30T16:52:18.348Z,4.05
2022-07-30T16:54:44.680Z,4.38
2022-07-30T16:57:11.011Z,7.82
2022-07-30T16:59:37.615Z,5.15
2022-07-30T17:02:04.670Z,3.15
2022-07-30T17:04:33.744Z,3.65
2022-07-30T17:07:00.308Z,3.88
2022-07-30T17:09:26.715Z,10.75
2022-07-30T17:12:01.274Z,5.65
2022-07-30T17:14:27.669Z,6.45
2022-07-30T17:16:54.023Z,6.10
2022-07-30T17:19:20.414Z,3.63
2022-07-30T17:21:46.783Z,3.03
2022-07-30T17:24:13.705Z,5.97
2022-07-30T17:26:42.791Z,3.33
2022-07-30T17:29:13.898Z,6.80
2022-07-30T17:31:44.688Z,2.30
2022-07-30T17:34:13.523Z,2.40
2022-07-30T17:36:41.455Z,8.13
2022-07-30T17:39:10.777Z,4.75
2022-07-30T17:42:00.311Z,2.50
2022-07-30T17:44:29.109Z,4.85
2022-07-30T17:46:55.974Z,7.68
2022-07-30T17:49:22.452Z,7.22
2022-07-30T17:51:49.102Z,6.68
2022-07-30T17:54:15.503Z,3.50
2022-07-30T17:56:41.904Z,4.25
2022-07-30T17:59:13.515Z,6.60
2022-07-30T18:04:10.919Z,5.68
2022-07-30T18:06:38.022Z,3.83
2022-07-30T18:09:04.665Z,2.95
2022-07-30T18:11:32.495Z,6.00
2022-07-30T18:13:59.250Z,4.85
2022-07-30T18:16:28.455Z,4.07
2022-07-30T18:18:55.555Z,6.47
2022-07-30T18:21:28.122Z,4.43
2022-07-30T18:23:54.998Z,5.82
2022-07-30T18:26:21.794Z,6.97
2022-07-30T18:28:50.663Z,3.83
2022-07-30T18:31:18.675Z,4.93
2022-07-30T18:33:46.032Z,3.90
2022-07-30T18:36:12.378Z,6.63
2022-07-30T18:38:38.824Z,9.23
2022-07-30T18:41:05.245Z,6.57
2022-07-30T18:43:31.675Z,4.40
2022-07-30T18:46:14.069Z,7.78
2022-07-30T18:48:40.708Z,2.15
2022-07-30T18:51:10.743Z,5.43
2022-07-30T18:53:39.832Z,7.53
2022-07-30T18:56:06.223Z,6.38
2022-07-30T18:58:32.614Z,4.32
2022-07-30T19:01:01.127Z,5.90
2022-07-30T19:03:28.615Z,6.70
2022-07-30T19:05:57.027Z,5.80
2022-07-30T19:08:24.987Z,6.82
2022-07-30T19:10:51.679Z,10.88
2022-07-30T19:13:18.401Z,6.32
2022-07-30T19:15:44.819Z,5.55
2022-07-30T19:18:13.690Z,10.23
2022-07-30T19:20:40.408Z,8.35
2022-07-30T19:23:08.424Z,8.40
2022-07-30T19:25:36.826Z,9.18
2022-07-30T19:28:04.186Z,9.43
2022-07-30T19:30:30.996Z,7.82
2022-07-30T19:33:04.986Z,10.45
2022-07-30T19:35:31.630Z,8.60
2022-07-30T19:37:58.010Z,5.22
2022-07-30T19:40:24.365Z,17.88
2022-07-30T19:42:55.887Z,6.72
2022-07-30T19:45:27.538Z,4.95
2022-07-30T19:48:13.843Z,4.35
2022-07-30T19:50:40.183Z,15.73
2022-07-30T19:53:06.783Z,6.13
2022-07-30T19:55:37.182Z,9.98
2022-07-30T19:58:04.845Z,7.28
2022-07-30T20:00:49.213Z,3.67
2022-07-30T20:03:16.312Z,14.00
2022-07-30T20:05:54.758Z,4.20
2022-07-30T20:08:28.821Z,3.65
2022-07-30T20:10:59.183Z,7.38
2022-07-30T20:13:45.229Z,6.63
2022-07-30T20:16:14.313Z,7.45
2022-07-30T20:18:44.390Z,3.88
2022-07-30T20:21:15.403Z,3.90
2022-07-30T20:23:42.215Z,4.22
2022-07-30T20:26:13.070Z,7.85
2022-07-30T20:28:41.024Z,5.20
2022-07-30T20:31:10.961Z,7.72
2022-07-30T20:33:44.466Z,4.28
2022-07-30T20:36:21.745Z,6.05
2022-07-30T20:38:49.221Z,8.53
2022-07-30T20:41:16.694Z,7.20
2022-07-30T20:46:36.202Z,16.45
2022-07-30T20:49:05.225Z,16.52
2022-07-30T20:51:37.096Z,27.30
2022-07-30T20:54:03.739Z,30.83
2022-07-30T20:56:30.241Z,22.50
2022-07-30T20:58:56.586Z,20.63
2022-07-30T21:01:23.011Z,15.55
2022-07-30T21:03:51.793Z,18.73
2022-07-30T21:06:18.844Z,7.82
2022-07-30T21:08:45.205Z,8.93
2022-07-30T21:11:12.421Z,5.80
2022-07-30T21:13:39.192Z,12.77
2022-07-30T21:16:15.835Z,10.18
2022-07-30T21:18:48.235Z,8.60
2022-07-30T21:21:16.964Z,8.20
2022-07-30T21:23:44.073Z,11.57
2022-07-30T21:26:13.668Z,4.70
2022-07-30T21:28:40.366Z,8.77
2022-07-30T21:31:06.759Z,6.65
2022-07-30T21:33:33.670Z,8.80
2022-07-30T21:36:00.103Z,4.43
2022-07-30T21:38:28.759Z,6.22
2022-07-30T21:40:56.992Z,6.20
2022-07-30T21:43:30.092Z,9.73
2022-07-30T21:45:57.540Z,11.52
2022-07-30T21:48:24.142Z,12.50
2022-07-30T21:50:50.546Z,11.07
2022-07-30T21:53:16.914Z,8.20
2022-07-30T21:55:56.397Z,4.10
2022-07-30T21:58:25.679Z,4.70
2022-07-30T22:00:54.909Z,9.13
2022-07-30T22:04:01.480Z,5.72
2022-07-30T22:06:08.206Z,6.43
2022-07-30T22:08:39.151Z,7.43
2022-07-30T22:11:08.900Z,4.68
2022-07-30T22:13:36.231Z,4.47
2022-07-30T22:16:21.280Z,5.65
2022-07-30T22:18:47.728Z,5.30
2022-07-30T22:21:14.561Z,4.47
2022-07-30T22:23:40.991Z,4.55
2022-07-30T22:26:21.522Z,11.13
2022-07-30T22:28:47.875Z,11.48
2022-07-30T22:31:19.056Z,7.15
2022-07-30T22:33:45.600Z,3.67
2022-07-30T22:36:12.086Z,4.40
2022-07-30T22:38:39.064Z,6.43
2022-07-30T22:41:05.555Z,9.05
2022-07-30T22:43:34.899Z,11.13
2022-07-30T22:46:30.816Z,11.48
2022-07-30T22:48:57.683Z,8.43
2022-07-30T22:51:25.743Z,8.48
2022-07-30T22:54:12.820Z,11.98
2022-07-30T22:56:39.484Z,9.45
2022-07-30T22:59:05.839Z,4.35
2022-07-30T23:01:32.248Z,11.40
2022-07-30T23:03:58.582Z,6.63
2022-07-30T23:06:28.115Z,10.00
2022-07-30T23:08:56.488Z,11.50
2022-07-30T23:11:22.843Z,12.45
2022-07-30T23:12:18.423Z,8.97
2022-07-30T23:13:49.286Z,5.63
2022-07-30T23:16:15.641Z,5.88
2022-07-30T23:18:42.112Z,8.95
2022-07-30T23:21:08.498Z,5.30
2022-07-30T23:23:35.594Z,4.93
2022-07-30T23:26:03.393Z,8.60
2022-07-30T23:28:29.813Z,5.43
2022-07-30T23:30:56.270Z,9.20
2022-07-30T23:33:22.599Z,10.07
2022-07-30T23:35:49.001Z,8.90
2022-07-30T23:38:15.322Z,15.07
2022-07-30T23:40:41.698Z,8.15
2022-07-30T23:43:08.087Z,5.95
2022-07-30T23:45:34.535Z,11.05
2022-07-30T23:48:03.348Z,6.80
2022-07-30T23:50:33.678Z,5.38
2022-07-30T23:53:00.550Z,6.18
2022-07-30T23:55:27.201Z,5.13
2022-07-30T23:57:53.716Z,8.48
